Flight Track Log - Related Links

Times and Time Zones

All times are in EDT time to prevent confusion due to time zone crossing. See the SKV7365 flight status page for this flight to view local times or setup timezone preferences in your user account.

Time Position Orientation Groundspeed Altitude Reporting Facility
EDT Latitude Longitude Course Direction KTS MPH feet Rate Location/Type
Wed 06:23:21 AM 39.8725 -75.2366 76° East 149 171 200  Level FlightAware ADS-B (KPHL)
Wed 06:23:37 AM 39.8833 -75.2167 323° Northwest 151 174 800 1,821 Climbing Philadelphia TRACON
Wed 06:24:17 AM 39.8889 -75.1766 68° East 185 213 1,900 1,692 Climbing FlightAware ADS-B (KPHL)
Wed 06:24:55 AM 39.9000 -75.1333 75° East 230 265 3,000 2,943 Climbing Philadelphia TRACON
Wed 06:25:10 AM 39.9082 -75.1111 69° East 224 258 4,500 2,700 Climbing FlightAware ADS-B (KPHL)
Wed 06:25:55 AM 39.9333 -75.0500 62° Northeast 230 265 5,700 2,040 Climbing Philadelphia TRACON
Wed 06:26:50 AM 39.9833 -75.0667 346° North 288 331 7,900 2,150 Climbing Philadelphia TRACON
Wed 06:27:00 AM 40.0495 -75.2678 339° North  Level Estimated
Wed 06:27:55 AM 40.0333 -75.1500 308° West 295 339 10,000  Level Philadelphia TRACON
Wed 06:28:00 AM 40.1264 -75.3535 323° Northwest  Level Estimated
Wed 06:28:50 AM 40.0833 -75.2500 303° West 332 382 10,000  Level Philadelphia TRACON
Wed 06:30:55 AM 40.1725 -75.4594 299° West 350 403 12,900 1,410 Climbing New York Center
Wed 06:31:53 AM 40.2264 -75.5692 303° West 350 403 14,300 1,700 Climbing New York Center
Wed 06:32:55 AM 40.2856 -75.6550 312° West 356 410 16,300 1,328 Climbing New York Center
Wed 06:33:55 AM 40.3542 -75.7578 311° West 366 421 17,000 353 Climbing New York Center
Wed 06:34:54 AM 40.4283 -75.8722 310° West 377 434 17,000  Level New York Center
Wed 06:35:53 AM 40.4603 -76.0028 288° West 371 427 17,000 694 Level New York Center
Wed 06:36:55 AM 40.4792 -76.1353 281° West 377 434 18,400 1,328 Climbing New York Center
Wed 06:37:55 AM 40.5086 -76.2658 287° West 377 434 19,700 1,525 Climbing New York Center
Wed 06:38:53 AM 40.5700 -76.3803 305° West 370 426 21,400 1,664 Climbing New York Center
Wed 06:39:54 AM 40.6372 -76.5006 306° West 389 448 23,000 1,512 Climbing New York Center
Wed 06:40:56 AM 40.7308 -76.5906 324° Northwest 402 463 24,500 1,361 Climbing New York Center
Wed 06:41:53 AM 40.8267 -76.6756 326° Northwest 412 474 25,700 1,169 Climbing New York Center
Wed 06:42:54 AM 40.9283 -76.7667 326° Northwest 424 488 26,800 1,091 Climbing New York Center
Wed 06:43:54 AM 41.0278 -76.8581 325° Northwest 434 499 27,900 1,050 Climbing New York Center
Wed 06:44:54 AM 41.1294 -76.9497 326° Northwest 439 505 28,900 950 Climbing New York Center
Wed 06:45:54 AM 41.2306 -77.0447 325° Northwest 444 511 29,800 550 Climbing New York Center
Wed 06:46:54 AM 41.3342 -77.1372 326° Northwest 450 518 30,000 98 Climbing New York Center
Wed 06:47:56 AM 41.4372 -77.2328 325° Northwest 450 518 30,000  Level New York Center
Wed 06:48:54 AM 41.5306 -77.3167 326° Northwest 450 518 30,000  Level New York Center
Wed 06:49:46 AM 41.6331 -77.4103 326° Northwest 450 518 30,000  Level Cleveland Center
Wed 06:50:47 AM 41.7369 -77.5072 325° Northwest 456 525 30,000  Level Cleveland Center
Wed 06:51:48 AM 41.8400 -77.6039 325° Northwest 459 528 30,000  Level Cleveland Center
Wed 06:52:49 AM 41.9492 -77.7056 325° Northwest 459 528 30,000  Level Cleveland Center
Wed 06:53:51 AM 42.0544 -77.8053 325° Northwest 459 528 30,000  Level Cleveland Center
Wed 06:54:52 AM 42.1597 -77.9061 325° Northwest 460 529 30,000 -344 Level Cleveland Center
Wed 06:55:53 AM 42.2664 -78.0064 325° Northwest 463 533 29,300 -885 Descending Cleveland Center
Wed 06:56:54 AM 42.3706 -78.1050 325° Northwest 457 526 28,200 -634 Descending Cleveland Center
Wed 06:57:56 AM 42.4739 -78.2044 325° Northwest 455 524 28,000 -98 Descending Cleveland Center
Wed 06:58:57 AM 42.5778 -78.3047 325° Northwest 455 524 28,000 -344 Level Cleveland Center
Wed 06:59:58 AM 42.6822 -78.4050 325° Northwest 455 524 27,300 -878 Descending Cleveland Center
Wed 07:01:00 AM 42.7833 -78.5044 324° Northwest 448 516 26,200 -1,024 Descending Cleveland Center
Wed 07:02:01 AM 42.8822 -78.6017 324° Northwest 439 505 25,200 -1,854 Descending Cleveland Center
Wed 07:03:58 AM 43.0333 -78.8333 312° West 410 472 20,700 -2,203 Descending Toronto Center
Wed 07:04:58 AM 43.1000 -78.9500 308° West 400 460 18,700 -2,050 Descending Toronto Center
Wed 07:05:58 AM 43.1667 -79.0833 304° West 390 449 16,600 -2,050 Descending Toronto Center
Wed 07:06:58 AM 43.2167 -79.2000 300° West 370 426 14,600 -1,700 Descending Toronto Center
Wed 07:07:58 AM 43.2667 -79.2833 310° West 350 403 13,200 -1,300 Descending Toronto Center
Wed 07:08:58 AM 43.3500 -79.3500 330° Northwest 310 357 12,000 -850 Descending Toronto Center
Wed 07:09:58 AM 43.4333 -79.3833 344° North 320 368 11,500 -1,100 Descending Toronto Center
Wed 07:10:58 AM 43.5167 -79.4333 336° Northwest 310 357 9,800 -1,400 Descending Toronto Center
Wed 07:11:58 AM 43.5667 -79.5000 316° Northwest 290 334 8,700 -1,250 Descending Toronto Center
Wed 07:12:58 AM 43.5500 -79.5833 255° West 250 288 7,300 -1,650 Descending Toronto Center
Wed 07:13:58 AM 43.5000 -79.6500 224° Southwest 230 265 5,400 -1,600 Descending Toronto Center
Wed 07:14:58 AM 43.4667 -79.7167 235° Southwest 220 253 4,100 -1,200 Descending Toronto Center
Wed 07:15:58 AM 43.5333 -79.7500 340° North 210 242 3,000 -700 Descending Toronto Center
Wed 07:16:58 AM 43.5667 -79.7167 36° Northeast 200 230 2,700 -650 Descending Toronto Center
Wed 07:17:58 AM 43.6167 -79.6500 44° Northeast 200 230 1,700 -950 Descending Toronto Center
Wed 07:18:58 AM 43.6333 -79.6167 55° Northeast 150 173 800 -600 Descending Toronto Center
Wed 07:19:58 AM 43.6667 -79.5833 36° Northeast 110 127 500 -300 Descending Toronto Center

Login

Don't have an account? Register now (free) for customized features, flight alerts, and more!